Time;durP1;ratioP1;P1;durP2;ratioP2;P2;SDS_P1;SDS_P2;PMS_P1;PMS_P2;Temp;Humidity;BMP_temperature;BMP_pressure;BME280_temperature;BME280_humidity;BME280_pressure;Samples;Min_cycle;Max_cycle;Signal;HPM_P1;HPM_P2
2021/08/12 00:00:24;;;;;;;5.25;2.63;;;;;;;;;;8263204;28;20467;-71
2021/08/12 00:04:32;;;;;;;10.35;2.88;;;;;;;;;;8262876;28;20045;-70
2021/08/12 00:08:36;;;;;;;10.43;3.05;;;;;;;;;;8245734;28;20343;-70
2021/08/12 00:12:41;;;;;;;6.13;3.10;;;;;;;;;;8262599;28;20390;-70
2021/08/12 00:16:47;;;;;;;4.30;2.42;;;;;;;;;;8262266;28;20480;-70
2021/08/12 00:20:52;;;;;;;6.20;2.47;;;;;;;;;;8264264;28;20465;-70
2021/08/12 00:24:57;;;;;;;6.68;3.17;;;;;;;;;;8261843;28;20372;-70
2021/08/12 00:29:04;;;;;;;5.97;2.75;;;;;;;;;;8261653;28;20426;-70
2021/08/12 00:33:09;;;;;;;5.80;2.83;;;;;;;;;;8262268;28;20376;-70
2021/08/12 00:37:14;;;;;;;5.63;3.00;;;;;;;;;;8261776;28;20049;-71
2021/08/12 00:41:21;;;;;;;8.50;2.90;;;;;;;;;;8260715;28;20471;-70
2021/08/12 00:45:32;;;;;;;8.13;2.78;;;;;;;;;;8260534;28;20045;-70
2021/08/12 00:49:38;;;;;;;5.78;3.17;;;;;;;;;;8243592;28;20476;-70
2021/08/12 00:53:50;;;;;;;4.35;2.70;;;;;;;;;;8259777;28;20376;-70
2021/08/12 00:57:55;;;;;;;6.78;3.17;;;;;;;;;;8229141;28;20372;-70
2021/08/12 01:02:02;;;;;;;7.55;3.50;;;;;;;;;;8259785;28;20360;-70
2021/08/12 01:06:08;;;;;;;6.20;2.85;;;;;;;;;;8243964;28;20071;-70
2021/08/12 01:10:57;;;;;;;4.63;2.85;;;;;;;;;;8260406;28;20421;-70
2021/08/12 01:15:08;;;;;;;7.70;2.97;;;;;;;;;;8236825;28;20065;-70
2021/08/12 01:19:21;;;;;;;12.93;2.67;;;;;;;;;;8258842;28;20045;-70
2021/08/12 01:23:29;;;;;;;9.75;3.20;;;;;;;;;;8259072;28;20464;-70
2021/08/12 01:27:37;;;;;;;5.78;2.97;;;;;;;;;;8260163;28;20056;-70
2021/08/12 01:32:13;;;;;;;8.93;3.30;;;;;;;;;;8243466;28;20048;-70
2021/08/12 01:36:20;;;;;;;4.45;3.00;;;;;;;;;;8227465;28;20092;-70
2021/08/12 01:40:30;;;;;;;5.38;3.40;;;;;;;;;;8242318;28;20355;-70
2021/08/12 01:44:36;;;;;;;8.82;3.47;;;;;;;;;;8241914;28;20064;-70
2021/08/12 01:48:46;;;;;;;8.43;3.35;;;;;;;;;;8242940;28;20504;-70
2021/08/12 01:52:54;;;;;;;6.78;3.30;;;;;;;;;;8260042;28;20378;-70
2021/08/12 01:57:00;;;;;;;5.28;3.03;;;;;;;;;;8241868;28;20471;-70
2021/08/12 02:01:06;;;;;;;5.93;3.15;;;;;;;;;;8241218;28;20476;-70
2021/08/12 02:05:17;;;;;;;8.15;3.35;;;;;;;;;;8259352;28;20044;-71
2021/08/12 02:09:23;;;;;;;6.10;3.20;;;;;;;;;;8259265;28;20313;-71
2021/08/12 02:13:28;;;;;;;6.25;3.22;;;;;;;;;;8260307;28;20490;-70
2021/08/12 02:17:34;;;;;;;5.53;3.10;;;;;;;;;;8258010;28;20472;-70
2021/08/12 02:21:50;;;;;;;9.68;3.35;;;;;;;;;;8257846;28;20470;-70
2021/08/12 02:26:05;;;;;;;6.88;3.08;;;;;;;;;;8257258;28;20045;-70
2021/08/12 02:30:12;;;;;;;8.10;2.88;;;;;;;;;;8241067;28;20498;-70
2021/08/12 02:34:20;;;;;;;5.43;3.42;;;;;;;;;;8241601;28;20467;-70
2021/08/12 02:38:26;;;;;;;5.47;3.20;;;;;;;;;;8240781;28;20740;-70
2021/08/12 02:42:33;;;;;;;6.13;3.35;;;;;;;;;;8240566;28;20345;-70
2021/08/12 02:46:40;;;;;;;6.10;3.33;;;;;;;;;;8258399;28;20352;-70
2021/08/12 02:50:47;;;;;;;6.53;3.63;;;;;;;;;;8242931;28;20383;-69
2021/08/12 02:54:54;;;;;;;8.82;3.40;;;;;;;;;;8258068;28;20333;-70
2021/08/12 02:59:00;;;;;;;8.25;3.78;;;;;;;;;;8257688;28;20482;-70
2021/08/12 03:03:08;;;;;;;6.35;3.65;;;;;;;;;;8255946;28;20341;-70
2021/08/12 03:07:14;;;;;;;5.97;3.47;;;;;;;;;;8240271;28;20352;-70
2021/08/12 03:11:21;;;;;;;12.82;3.40;;;;;;;;;;8256542;28;20452;-70
2021/08/12 03:15:29;;;;;;;9.88;3.55;;;;;;;;;;8255144;28;20083;-70
2021/08/12 03:19:34;;;;;;;6.75;3.30;;;;;;;;;;8255195;28;20049;-71
2021/08/12 03:23:41;;;;;;;6.80;3.78;;;;;;;;;;8258319;28;20049;-70
2021/08/12 03:27:46;;;;;;;10.23;3.45;;;;;;;;;;8239315;28;20467;-70
2021/08/12 03:31:52;;;;;;;7.97;3.55;;;;;;;;;;8255553;28;20495;-70
2021/08/12 03:35:58;;;;;;;4.97;3.00;;;;;;;;;;8257315;28;20505;-70
2021/08/12 03:40:06;;;;;;;8.57;4.25;;;;;;;;;;8255630;28;20185;-70
2021/08/12 03:44:11;;;;;;;6.97;3.70;;;;;;;;;;8256529;28;20448;-70
2021/08/12 03:48:21;;;;;;;9.85;4.22;;;;;;;;;;8239355;28;20349;-70
2021/08/12 03:52:27;;;;;;;8.77;3.75;;;;;;;;;;8254851;28;20084;-70
2021/08/12 03:56:32;;;;;;;6.95;3.58;;;;;;;;;;8256721;28;20379;-71
2021/08/12 04:00:37;;;;;;;6.25;3.30;;;;;;;;;;8255651;28;20480;-70
2021/08/12 04:04:43;;;;;;;7.65;4.05;;;;;;;;;;8256391;28;20654;-71
2021/08/12 04:08:48;;;;;;;12.75;3.92;;;;;;;;;;8256188;28;20403;-70
2021/08/12 04:12:55;;;;;;;6.82;3.78;;;;;;;;;;8255456;28;20368;-71
2021/08/12 04:17:01;;;;;;;6.18;3.50;;;;;;;;;;8254582;28;20513;-70
2021/08/12 04:21:06;;;;;;;6.93;3.63;;;;;;;;;;8255543;28;20452;-70
2021/08/12 04:25:12;;;;;;;11.18;4.40;;;;;;;;;;8254932;28;20478;-70
2021/08/12 04:29:18;;;;;;;10.35;4.22;;;;;;;;;;8239237;28;20061;-70
2021/08/12 04:33:23;;;;;;;7.75;4.60;;;;;;;;;;8256189;28;20451;-70
2021/08/12 04:37:42;;;;;;;12.25;4.47;;;;;;;;;;8258107;28;20486;-70
2021/08/12 04:41:47;;;;;;;13.98;5.28;;;;;;;;;;8261402;28;20419;-70
2021/08/12 04:45:53;;;;;;;13.93;5.55;;;;;;;;;;8261144;28;20373;-70
2021/08/12 04:49:59;;;;;;;25.92;7.05;;;;;;;;;;8261043;28;20344;-70
2021/08/12 04:54:04;;;;;;;15.85;6.72;;;;;;;;;;8244127;28;20452;-70
2021/08/12 04:58:09;;;;;;;12.38;5.15;;;;;;;;;;8261079;28;20566;-69
2021/08/12 05:02:15;;;;;;;9.27;4.55;;;;;;;;;;8260590;28;20514;-70
2021/08/12 05:06:20;;;;;;;19.40;5.32;;;;;;;;;;8260188;28;20075;-70
2021/08/12 05:10:27;;;;;;;11.13;5.72;;;;;;;;;;8259465;28;20487;-70
2021/08/12 05:14:34;;;;;;;12.63;5.80;;;;;;;;;;8260707;28;20452;-69
2021/08/12 05:18:40;;;;;;;13.93;5.78;;;;;;;;;;8226613;28;20362;-70
2021/08/12 05:22:45;;;;;;;11.23;5.22;;;;;;;;;;8228843;28;20384;-70
2021/08/12 05:26:52;;;;;;;14.77;4.87;;;;;;;;;;8243378;28;20372;-70
2021/08/12 05:30:58;;;;;;;10.98;4.68;;;;;;;;;;8226529;28;20970;-70
2021/08/12 05:35:05;;;;;;;12.35;4.80;;;;;;;;;;8242418;28;20053;-69
2021/08/12 05:39:10;;;;;;;10.63;4.45;;;;;;;;;;8242117;28;20344;-70
2021/08/12 05:43:16;;;;;;;15.43;4.70;;;;;;;;;;8227662;28;20053;-70
2021/08/12 05:47:22;;;;;;;7.80;4.30;;;;;;;;;;8209125;28;20045;-71
2021/08/12 05:51:27;;;;;;;7.97;4.47;;;;;;;;;;8242375;28;20472;-70
2021/08/12 05:55:32;;;;;;;8.63;3.92;;;;;;;;;;8241718;28;20363;-70
2021/08/12 05:59:38;;;;;;;9.63;4.43;;;;;;;;;;8241760;28;20064;-70
2021/08/12 06:03:43;;;;;;;9.88;4.13;;;;;;;;;;8241777;28;20473;-70
2021/08/12 06:07:49;;;;;;;11.70;4.35;;;;;;;;;;8241252;28;20445;-70
2021/08/12 06:11:55;;;;;;;9.07;4.65;;;;;;;;;;8241729;28;20046;-71
2021/08/12 06:16:01;;;;;;;9.38;4.28;;;;;;;;;;8227700;28;20485;-70
2021/08/12 06:20:08;;;;;;;10.70;3.85;;;;;;;;;;8241894;28;20400;-70
2021/08/12 06:24:15;;;;;;;8.13;3.85;;;;;;;;;;8240935;28;20472;-71
2021/08/12 06:28:22;;;;;;;9.63;4.60;;;;;;;;;;8224462;28;20361;-70
2021/08/12 06:32:28;;;;;;;12.05;3.88;;;;;;;;;;8208696;28;20412;-71
2021/08/12 06:36:33;;;;;;;12.18;4.13;;;;;;;;;;8228522;28;20372;-70
2021/08/12 06:40:39;;;;;;;12.48;4.63;;;;;;;;;;8223953;28;20349;-72
2021/08/12 06:44:44;;;;;;;8.25;3.60;;;;;;;;;;8226077;28;20385;-71
2021/08/12 06:48:50;;;;;;;9.38;3.90;;;;;;;;;;8241585;28;20363;-70
2021/08/12 06:53:11;;;;;;;6.50;3.75;;;;;;;;;;8240781;28;20380;-71
2021/08/12 06:57:17;;;;;;;13.60;4.28;;;;;;;;;;8240388;28;20476;-71
2021/08/12 07:01:24;;;;;;;6.95;3.70;;;;;;;;;;8255026;28;20353;-71
2021/08/12 07:05:31;;;;;;;8.15;3.75;;;;;;;;;;8256287;28;20044;-70
2021/08/12 07:09:37;;;;;;;5.30;2.97;;;;;;;;;;8258040;28;20365;-70
2021/08/12 07:13:43;;;;;;;7.78;3.63;;;;;;;;;;8256220;28;20482;-71
2021/08/12 07:17:50;;;;;;;4.35;2.90;;;;;;;;;;8255367;28;20061;-70
2021/08/12 07:21:58;;;;;;;8.75;3.33;;;;;;;;;;8240434;28;20441;-71
2021/08/12 07:26:04;;;;;;;5.07;3.00;;;;;;;;;;8257415;28;20429;-71
2021/08/12 07:30:11;;;;;;;5.50;2.60;;;;;;;;;;8255374;28;20368;-71
2021/08/12 07:34:16;;;;;;;5.68;2.53;;;;;;;;;;8256448;28;20055;-71
2021/08/12 07:38:21;;;;;;;6.53;2.30;;;;;;;;;;8238883;28;20348;-71
2021/08/12 07:42:28;;;;;;;8.32;3.08;;;;;;;;;;8256410;28;20471;-70
2021/08/12 07:46:35;;;;;;;3.70;2.10;;;;;;;;;;8254748;28;20491;-71
2021/08/12 07:50:40;;;;;;;8.43;2.35;;;;;;;;;;8255465;28;20401;-71
2021/08/12 07:54:48;;;;;;;4.43;2.17;;;;;;;;;;8255797;28;20048;-71
2021/08/12 07:58:54;;;;;;;3.03;1.90;;;;;;;;;;8256013;28;20067;-71
2021/08/12 08:02:59;;;;;;;3.28;2.03;;;;;;;;;;8256300;28;20357;-72
2021/08/12 08:07:04;;;;;;;10.13;2.42;;;;;;;;;;8255979;28;20335;-70
2021/08/12 08:11:11;;;;;;;3.05;1.35;;;;;;;;;;8259312;28;20348;-71
2021/08/12 08:15:18;;;;;;;4.80;2.60;;;;;;;;;;8264748;28;20053;-71
2021/08/12 08:19:36;;;;;;;2.95;1.60;;;;;;;;;;8242799;28;20087;-72
2021/08/12 08:23:42;;;;;;;2.85;1.27;;;;;;;;;;8230022;28;20465;-71
2021/08/12 08:27:47;;;;;;;7.47;1.60;;;;;;;;;;8245546;28;20476;-72
2021/08/12 08:32:08;;;;;;;2.67;1.45;;;;;;;;;;8230029;28;20502;-71
2021/08/12 08:36:13;;;;;;;2.13;1.52;;;;;;;;;;8245826;28;20399;-72
2021/08/12 08:40:19;;;;;;;2.72;1.63;;;;;;;;;;8229563;28;20095;-73
2021/08/12 08:44:25;;;;;;;2.15;1.17;;;;;;;;;;8245795;28;20064;-71
2021/08/12 08:48:36;;;;;;;2.13;1.50;;;;;;;;;;8229555;28;20471;-71
2021/08/12 08:52:42;;;;;;;4.13;1.80;;;;;;;;;;8243845;28;20465;-71
2021/08/12 08:56:48;;;;;;;2.92;1.50;;;;;;;;;;8244155;28;20350;-71
2021/08/12 09:00:53;;;;;;;2.67;1.25;;;;;;;;;;8243483;28;20067;-71
2021/08/12 09:04:59;;;;;;;3.30;1.27;;;;;;;;;;8229273;28;20582;-73
2021/08/12 09:09:04;;;;;;;2.03;1.15;;;;;;;;;;8243082;28;20041;-72
2021/08/12 09:13:09;;;;;;;1.55;1.23;;;;;;;;;;8230215;28;20488;-72
2021/08/12 09:17:20;;;;;;;3.28;1.20;;;;;;;;;;8241167;28;20664;-72
2021/08/12 09:21:27;;;;;;;4.20;1.45;;;;;;;;;;8259926;28;20534;-71
2021/08/12 09:25:44;;;;;;;2.65;1.67;;;;;;;;;;8242535;28;20383;-71
2021/08/12 09:29:50;;;;;;;4.70;1.60;;;;;;;;;;8259587;28;20482;-71
2021/08/12 09:33:56;;;;;;;2.72;1.52;;;;;;;;;;8260110;28;20049;-72
2021/08/12 09:38:14;;;;;;;7.10;1.95;;;;;;;;;;8260532;28;20510;-72
2021/08/12 09:42:22;;;;;;;2.47;1.63;;;;;;;;;;8260722;28;20411;-73
2021/08/12 09:46:34;;;;;;;2.40;1.23;;;;;;;;;;8261385;28;20415;-72
2021/08/12 09:50:40;;;;;;;2.15;1.20;;;;;;;;;;8259139;28;20465;-72
2021/08/12 09:54:45;;;;;;;1.55;1.13;;;;;;;;;;8242225;28;20475;-71
2021/08/12 09:58:51;;;;;;;2.72;1.20;;;;;;;;;;8243037;28;20376;-72
2021/08/12 10:02:56;;;;;;;1.45;1.08;;;;;;;;;;8243570;28;20057;-71
2021/08/12 10:07:02;;;;;;;2.33;1.27;;;;;;;;;;8242186;28;20071;-71
2021/08/12 10:11:25;;;;;;;2.35;1.23;;;;;;;;;;8259525;28;20415;-72
2021/08/12 10:15:34;;;;;;;2.97;1.58;;;;;;;;;;8258987;28;20459;-71
2021/08/12 10:19:40;;;;;;;1.90;1.35;;;;;;;;;;8240541;28;20075;-71
2021/08/12 10:23:52;;;;;;;2.10;1.70;;;;;;;;;;8259629;28;20482;-71
2021/08/12 10:28:02;;;;;;;3.28;1.60;;;;;;;;;;8241821;28;20091;-72
2021/08/12 10:32:08;;;;;;;4.18;1.13;;;;;;;;;;8242194;28;20478;-72
2021/08/12 10:36:14;;;;;;;;;;;;;;;;;;8241445;28;20398;-72
2021/08/12 10:40:21;;;;;;;2.15;1.17;;;;;;;;;;8256160;28;20461;-71
2021/08/12 10:44:27;;;;;;;2.33;1.00;;;;;;;;;;8257247;28;20368;-71
2021/08/12 10:48:33;;;;;;;1.73;0.90;;;;;;;;;;8257181;28;20045;-71
2021/08/12 10:53:06;;;;;;;3.90;1.20;;;;;;;;;;8241833;28;20332;-72
2021/08/12 10:57:14;;;;;;;2.10;1.30;;;;;;;;;;8257747;28;20506;-72
2021/08/12 11:01:36;;;;;;;1.60;0.85;;;;;;;;;;8258419;28;20403;-72
2021/08/12 11:06:10;;;;;;;1.85;1.08;;;;;;;;;;8257520;28;20045;-71
2021/08/12 11:10:16;;;;;;;2.42;0.95;;;;;;;;;;8256565;28;20325;-71
2021/08/12 11:14:57;;;;;;;2.53;1.30;;;;;;;;;;8258591;28;20356;-73
2021/08/12 11:19:02;;;;;;;2.92;1.20;;;;;;;;;;8136461;28;20392;-71
2021/08/12 11:23:18;;;;;;;2.35;1.08;;;;;;;;;;8224635;28;20384;-72
2021/08/12 11:27:35;;;;;;;1.55;0.98;;;;;;;;;;8225229;28;20360;-72
2021/08/12 11:31:40;;;;;;;4.70;1.20;;;;;;;;;;8223165;28;20472;-71
2021/08/12 11:36:07;;;;;;;1.70;1.10;;;;;;;;;;8223819;28;20381;-71
2021/08/12 11:40:12;;;;;;;2.20;1.10;;;;;;;;;;8224497;28;20057;-72
2021/08/12 11:44:18;;;;;;;3.60;1.23;;;;;;;;;;8223261;28;20050;-71
2021/08/12 11:48:25;;;;;;;2.33;1.47;;;;;;;;;;8232068;28;20372;-71
2021/08/12 11:52:36;;;;;;;2.08;1.25;;;;;;;;;;8231886;28;20399;-71
2021/08/12 11:56:42;;;;;;;2.60;1.40;;;;;;;;;;8246701;28;20071;-72
2021/08/12 12:00:47;;;;;;;2.22;1.60;;;;;;;;;;8229905;28;20360;-72
2021/08/12 12:04:53;;;;;;;8.82;3.28;;;;;;;;;;8229489;28;20515;-73
2021/08/12 12:08:59;;;;;;;2.57;1.20;;;;;;;;;;8230622;28;20076;-72
2021/08/12 12:13:21;;;;;;;2.58;1.50;;;;;;;;;;8230036;28;20322;-72
2021/08/12 12:17:27;;;;;;;1.73;1.30;;;;;;;;;;8243430;28;20341;-71
2021/08/12 12:21:42;;;;;;;6.97;1.70;;;;;;;;;;8262374;28;20064;-71
2021/08/12 12:25:52;;;;;;;3.63;1.20;;;;;;;;;;8261189;28;20455;-72
2021/08/12 12:30:15;;;;;;;2.00;1.27;;;;;;;;;;8262618;28;20041;-71
2021/08/12 12:34:21;;;;;;;2.15;1.40;;;;;;;;;;8263556;28;20355;-71
2021/08/12 12:38:27;;;;;;;2.97;1.35;;;;;;;;;;8244414;28;20419;-71
2021/08/12 12:42:38;;;;;;;1.80;1.23;;;;;;;;;;8243978;28;20373;-72
2021/08/12 12:46:43;;;;;;;9.88;1.55;;;;;;;;;;8245299;28;20048;-72
2021/08/12 12:50:51;;;;;;;2.35;1.50;;;;;;;;;;8263737;28;20468;-71
2021/08/12 12:54:58;;;;;;;2.05;1.15;;;;;;;;;;8263358;28;20367;-71
2021/08/12 12:59:11;;;;;;;;;;;;;;;;;;8261414;28;20075;-71
2021/08/12 13:03:17;;;;;;;3.10;1.30;;;;;;;;;;8259852;28;20279;-72
2021/08/12 13:07:22;;;;;;;3.67;1.00;;;;;;;;;;8260545;28;20491;-72
2021/08/12 13:11:30;;;;;;;4.47;1.60;;;;;;;;;;8261156;28;20473;-72
2021/08/12 13:15:36;;;;;;;2.00;1.30;;;;;;;;;;8262393;28;20477;-71
2021/08/12 13:19:43;;;;;;;2.22;1.10;;;;;;;;;;8243425;28;20376;-72
2021/08/12 13:23:55;;;;;;;1.20;0.93;;;;;;;;;;8230046;28;20407;-71
2021/08/12 13:28:01;;;;;;;3.30;1.73;;;;;;;;;;8242903;28;20532;-72
2021/08/12 13:32:14;;;;;;;2.22;1.08;;;;;;;;;;8228352;28;20482;-71
2021/08/12 13:36:19;;;;;;;1.92;1.33;;;;;;;;;;8242440;28;20414;-72
2021/08/12 13:40:25;;;;;;;2.22;1.40;;;;;;;;;;8228198;28;20492;-71
2021/08/12 13:44:32;;;;;;;2.25;1.35;;;;;;;;;;8227266;28;20345;-72
2021/08/12 13:48:38;;;;;;;5.47;1.33;;;;;;;;;;8227482;28;20457;-71
2021/08/12 13:52:43;;;;;;;2.72;1.52;;;;;;;;;;8242339;28;20496;-71
2021/08/12 13:56:49;;;;;;;2.42;1.30;;;;;;;;;;8228797;28;20465;-72
2021/08/12 14:00:55;;;;;;;2.23;1.20;;;;;;;;;;8227149;28;20071;-72
2021/08/12 14:05:00;;;;;;;3.40;1.13;;;;;;;;;;8240836;28;20441;-70
2021/08/12 14:09:07;;;;;;;1.95;1.20;;;;;;;;;;8225547;28;20472;-72
2021/08/12 14:13:12;;;;;;;2.63;1.25;;;;;;;;;;8241473;28;20376;-72
2021/08/12 14:17:17;;;;;;;2.13;1.15;;;;;;;;;;8253012;28;20375;-71
2021/08/12 14:21:22;;;;;;;1.63;1.38;;;;;;;;;;8260452;28;20041;-71
2021/08/12 14:25:28;;;;;;;5.47;1.60;;;;;;;;;;8258234;28;20049;-72
2021/08/12 14:29:34;;;;;;;3.05;1.30;;;;;;;;;;8260100;28;20468;-71
2021/08/12 14:33:42;;;;;;;3.10;1.40;;;;;;;;;;8257859;28;20057;-71
2021/08/12 14:37:47;;;;;;;3.65;1.60;;;;;;;;;;8258234;28;20048;-72
2021/08/12 14:41:52;;;;;;;1.80;1.30;;;;;;;;;;8258748;28;20480;-71
2021/08/12 14:45:58;;;;;;;1.55;1.23;;;;;;;;;;8260551;28;20045;-73
2021/08/12 14:50:05;;;;;;;2.97;1.27;;;;;;;;;;8241289;28;20475;-71
2021/08/12 14:54:11;;;;;;;4.85;1.83;;;;;;;;;;8254348;28;20411;-72
2021/08/12 14:58:17;;;;;;;1.50;1.17;;;;;;;;;;8260178;28;20359;-72
2021/08/12 15:02:22;;;;;;;3.00;1.40;;;;;;;;;;8259052;28;20366;-71
2021/08/12 15:06:27;;;;;;;2.08;1.38;;;;;;;;;;8257309;28;20379;-73
2021/08/12 15:10:33;;;;;;;2.58;1.52;;;;;;;;;;8257585;28;20051;-71
2021/08/12 15:14:38;;;;;;;2.35;1.33;;;;;;;;;;8258029;28;20467;-71
2021/08/12 15:18:45;;;;;;;3.92;1.70;;;;;;;;;;8258136;28;20071;-71
2021/08/12 15:22:50;;;;;;;2.35;1.30;;;;;;;;;;8259208;28;20063;-71
2021/08/12 15:26:56;;;;;;;2.25;1.10;;;;;;;;;;8257550;28;20452;-72
2021/08/12 15:31:01;;;;;;;1.75;1.40;;;;;;;;;;8259105;28;20391;-71
2021/08/12 15:35:08;;;;;;;3.30;1.50;;;;;;;;;;8257059;28;20049;-72
2021/08/12 15:39:13;;;;;;;1.75;1.40;;;;;;;;;;8257048;28;20387;-71
2021/08/12 15:43:18;;;;;;;2.83;1.40;;;;;;;;;;8257049;28;20480;-71
2021/08/12 15:47:24;;;;;;;3.55;1.40;;;;;;;;;;8258629;28;20489;-71
2021/08/12 15:51:29;;;;;;;3.60;1.40;;;;;;;;;;8256322;28;20467;-71
2021/08/12 15:55:35;;;;;;;3.28;1.55;;;;;;;;;;8256618;28;20436;-71
2021/08/12 15:59:40;;;;;;;3.33;1.27;;;;;;;;;;8256380;28;20475;-71
2021/08/12 16:03:45;;;;;;;2.58;1.48;;;;;;;;;;8257415;28;20463;-71
2021/08/12 16:07:52;;;;;;;3.08;1.50;;;;;;;;;;8256901;28;20371;-71
2021/08/12 16:11:57;;;;;;;2.15;1.23;;;;;;;;;;8256166;28;20395;-71
2021/08/12 16:16:07;;;;;;;3.25;1.40;;;;;;;;;;8254048;28;20075;-71
2021/08/12 16:20:11;;;;;;;5.25;1.45;;;;;;;;;;8256063;28;20483;-71
2021/08/12 16:24:17;;;;;;;2.30;1.70;;;;;;;;;;8257255;28;20368;-71
2021/08/12 16:28:22;;;;;;;5.88;1.60;;;;;;;;;;8257523;28;20352;-71
2021/08/12 16:32:27;;;;;;;3.35;1.55;;;;;;;;;;8260096;28;20379;-73
2021/08/12 16:36:44;;;;;;;6.35;1.52;;;;;;;;;;7966806;28;20004936;-71
2021/08/12 16:40:49;;;;;;;6.00;1.70;;;;;;;;;;8263197;28;20970;-71
2021/08/12 16:44:55;;;;;;;5.15;1.60;;;;;;;;;;8260751;28;20495;-71
2021/08/12 16:49:00;;;;;;;1.92;1.50;;;;;;;;;;8260412;28;20064;-72
2021/08/12 16:53:06;;;;;;;3.53;1.60;;;;;;;;;;8245628;28;20348;-71
2021/08/12 16:57:14;;;;;;;6.07;1.90;;;;;;;;;;8261501;28;20372;-72
2021/08/12 17:01:21;;;;;;;2.65;1.38;;;;;;;;;;8261941;28;20383;-71
2021/08/12 17:05:26;;;;;;;2.78;1.40;;;;;;;;;;8261662;28;20460;-71
2021/08/12 17:09:33;;;;;;;5.90;2.20;;;;;;;;;;8260583;28;20478;-71
2021/08/12 17:13:38;;;;;;;2.95;1.42;;;;;;;;;;8263418;28;20475;-72
2021/08/12 17:17:43;;;;;;;2.10;1.45;;;;;;;;;;8242582;28;20372;-71
2021/08/12 17:21:49;;;;;;;6.75;1.63;;;;;;;;;;8260770;28;20053;-71
2021/08/12 17:25:54;;;;;;;3.92;1.70;;;;;;;;;;8258660;28;20365;-71
2021/08/12 17:30:02;;;;;;;3.03;1.90;;;;;;;;;;8243775;28;20348;-71
2021/08/12 17:34:08;;;;;;;4.10;1.65;;;;;;;;;;8261440;28;20075;-71
2021/08/12 17:38:13;;;;;;;3.83;1.92;;;;;;;;;;8259748;28;20403;-70
2021/08/12 17:42:20;;;;;;;5.93;1.75;;;;;;;;;;8262456;28;20491;-71
2021/08/12 17:46:25;;;;;;;6.83;3.10;;;;;;;;;;8260918;28;20399;-71
2021/08/12 17:50:31;;;;;;;3.63;2.90;;;;;;;;;;8260345;28;20349;-72
2021/08/12 17:54:36;;;;;;;8.10;3.67;;;;;;;;;;8261712;28;20448;-70
2021/08/12 17:58:42;;;;;;;6.45;4.10;;;;;;;;;;8259281;28;20448;-71
2021/08/12 18:02:48;;;;;;;8.10;4.47;;;;;;;;;;8257823;28;20483;-72
2021/08/12 18:06:54;;;;;;;6.30;4.20;;;;;;;;;;8259669;28;20376;-71
2021/08/12 18:11:00;;;;;;;4.45;2.85;;;;;;;;;;8260032;28;20071;-70
2021/08/12 18:15:05;;;;;;;5.68;3.80;;;;;;;;;;8259810;28;20464;-72
2021/08/12 18:19:10;;;;;;;7.38;5.13;;;;;;;;;;8259361;28;20049;-71
2021/08/12 18:23:17;;;;;;;7.28;5.00;;;;;;;;;;8241980;28;20486;-71
2021/08/12 18:27:22;;;;;;;8.23;5.13;;;;;;;;;;8258471;28;20483;-71
2021/08/12 18:31:27;;;;;;;7.70;4.20;;;;;;;;;;8257539;28;20402;-71
2021/08/12 18:35:32;;;;;;;11.27;4.82;;;;;;;;;;8259647;28;20472;-75
2021/08/12 18:39:37;;;;;;;9.77;4.70;;;;;;;;;;8257365;28;20341;-71
2021/08/12 18:43:43;;;;;;;5.47;3.45;;;;;;;;;;8256902;28;20376;-71
2021/08/12 18:47:48;;;;;;;13.55;4.30;;;;;;;;;;8258302;28;20067;-71
2021/08/12 18:51:53;;;;;;;22.88;12.00;;;;;;;;;;8257482;28;20359;-71
2021/08/12 18:55:58;;;;;;;22.13;12.40;;;;;;;;;;8258228;28;20368;-71
2021/08/12 19:00:07;;;;;;;22.13;10.80;;;;;;;;;;8258477;28;20449;-72
2021/08/12 19:04:12;;;;;;;8.55;3.20;;;;;;;;;;8259631;28;20456;-71
2021/08/12 19:08:17;;;;;;;8.57;3.22;;;;;;;;;;8240041;28;20045;-71
2021/08/12 19:12:22;;;;;;;11.85;3.42;;;;;;;;;;8257524;28;20398;-72
2021/08/12 19:16:28;;;;;;;5.53;3.30;;;;;;;;;;8256645;28;20464;-72
2021/08/12 19:20:34;;;;;;;8.23;3.75;;;;;;;;;;8223781;28;20383;-70
2021/08/12 19:24:39;;;;;;;6.70;2.97;;;;;;;;;;7930617;28;10001826;-72
2021/08/12 19:28:44;;;;;;;12.00;3.30;;;;;;;;;;8285801;28;20459;-71
2021/08/12 19:32:49;;;;;;;5.53;3.38;;;;;;;;;;8253321;28;20502;-72
2021/08/12 19:36:54;;;;;;;5.03;2.85;;;;;;;;;;8285703;28;20375;-71
2021/08/12 19:40:59;;;;;;;5.93;3.53;;;;;;;;;;8285963;28;20376;-71
2021/08/12 19:45:07;;;;;;;5.15;3.20;;;;;;;;;;8286129;28;20443;-70
2021/08/12 19:49:12;;;;;;;9.48;3.08;;;;;;;;;;8269821;28;20409;-71
2021/08/12 19:53:20;;;;;;;6.55;3.60;;;;;;;;;;8285059;28;20079;-70
2021/08/12 19:57:25;;;;;;;7.38;3.15;;;;;;;;;;8249322;28;20488;-71
2021/08/12 20:01:30;;;;;;;7.25;3.63;;;;;;;;;;8256726;28;20491;-71
2021/08/12 20:05:37;;;;;;;6.75;3.80;;;;;;;;;;8257534;28;20456;-71
2021/08/12 20:09:42;;;;;;;9.40;5.25;;;;;;;;;;8264658;28;20503;-71
2021/08/12 20:13:47;;;;;;;6.88;4.50;;;;;;;;;;8261862;28;20068;-71
2021/08/12 20:17:53;;;;;;;7.78;5.15;;;;;;;;;;8264807;28;20460;-71
2021/08/12 20:21:58;;;;;;;6.45;4.60;;;;;;;;;;8263127;28;20506;-71
2021/08/12 20:26:04;;;;;;;10.93;5.63;;;;;;;;;;8262303;28;20479;-71
2021/08/12 20:30:11;;;;;;;7.55;4.80;;;;;;;;;;8265049;28;20226;-71
2021/08/12 20:34:16;;;;;;;9.40;5.10;;;;;;;;;;8245185;28;20049;-71
2021/08/12 20:38:22;;;;;;;7.72;4.50;;;;;;;;;;8261809;28;20468;-72
2021/08/12 20:42:27;;;;;;;11.52;4.43;;;;;;;;;;8262808;28;20041;-71
2021/08/12 20:46:33;;;;;;;11.43;4.32;;;;;;;;;;8260166;28;20041;-71
2021/08/12 20:50:38;;;;;;;5.82;3.85;;;;;;;;;;8244414;28;20376;-71
2021/08/12 20:54:43;;;;;;;9.20;4.50;;;;;;;;;;8243417;28;20379;-71
2021/08/12 20:58:50;;;;;;;8.73;4.63;;;;;;;;;;8261652;28;20048;-72
2021/08/12 21:02:55;;;;;;;12.77;4.75;;;;;;;;;;8261486;28;20460;-71
2021/08/12 21:07:01;;;;;;;13.85;4.25;;;;;;;;;;8260032;28;20079;-71
2021/08/12 21:11:07;;;;;;;9.68;4.88;;;;;;;;;;8263184;28;20363;-71
2021/08/12 21:15:12;;;;;;;6.20;4.45;;;;;;;;;;8263239;28;20448;-71
2021/08/12 21:19:17;;;;;;;8.20;4.82;;;;;;;;;;8259909;28;20418;-71
2021/08/12 21:23:23;;;;;;;8.55;4.80;;;;;;;;;;8260479;28;20361;-71
2021/08/12 21:27:28;;;;;;;7.57;3.90;;;;;;;;;;8260189;28;20491;-71
2021/08/12 21:31:33;;;;;;;10.23;3.97;;;;;;;;;;8259529;28;20476;-70
2021/08/12 21:35:38;;;;;;;7.85;3.88;;;;;;;;;;8261044;28;20480;-70
2021/08/12 21:39:45;;;;;;;6.63;3.60;;;;;;;;;;8260703;28;20380;-71
2021/08/12 21:43:51;;;;;;;5.88;3.85;;;;;;;;;;8242941;28;20476;-73
2021/08/12 21:47:56;;;;;;;8.50;4.30;;;;;;;;;;8260195;28;20468;-71
2021/08/12 21:52:01;;;;;;;7.70;3.67;;;;;;;;;;8262968;28;20440;-70
2021/08/12 21:56:07;;;;;;;6.82;3.75;;;;;;;;;;8260003;28;20045;-71
2021/08/12 22:00:16;;;;;;;7.13;4.10;;;;;;;;;;8259381;28;20455;-71
2021/08/12 22:04:22;;;;;;;6.45;3.72;;;;;;;;;;8243081;28;20375;-71
2021/08/12 22:08:27;;;;;;;9.95;3.95;;;;;;;;;;8258500;28;20034;-71
2021/08/12 22:12:33;;;;;;;6.50;3.58;;;;;;;;;;8257678;28;20436;-71
2021/08/12 22:16:38;;;;;;;5.20;3.83;;;;;;;;;;8257582;28;20048;-71
2021/08/12 22:20:43;;;;;;;5.95;3.15;;;;;;;;;;8260147;28;20420;-71
2021/08/12 22:24:48;;;;;;;9.77;3.85;;;;;;;;;;8259020;28;20419;-71
2021/08/12 22:28:54;;;;;;;6.47;3.55;;;;;;;;;;8259578;28;20479;-71
2021/08/12 22:33:03;;;;;;;7.40;3.50;;;;;;;;;;8258201;28;20071;-71
2021/08/12 22:37:08;;;;;;;5.10;3.33;;;;;;;;;;8259585;28;20471;-71
2021/08/12 22:41:14;;;;;;;9.13;3.42;;;;;;;;;;8260220;28;20463;-71
2021/08/12 22:45:19;;;;;;;5.40;2.88;;;;;;;;;;8261119;28;20071;-71
2021/08/12 22:49:24;;;;;;;6.93;3.08;;;;;;;;;;8257493;28;20471;-71
2021/08/12 22:53:29;;;;;;;5.38;3.20;;;;;;;;;;8241434;28;20053;-71
2021/08/12 22:57:36;;;;;;;4.80;2.80;;;;;;;;;;8258568;28;20348;-70
2021/08/12 23:01:42;;;;;;;13.93;3.95;;;;;;;;;;8257497;28;20045;-71
2021/08/12 23:05:48;;;;;;;2.83;2.15;;;;;;;;;;8257825;28;20357;-71
2021/08/12 23:09:53;;;;;;;5.47;3.00;;;;;;;;;;8258489;28;20399;-70
2021/08/12 23:13:58;;;;;;;7.05;2.92;;;;;;;;;;8257702;28;20037;-71
2021/08/12 23:18:05;;;;;;;4.57;2.50;;;;;;;;;;8257582;28;20494;-71
2021/08/12 23:22:10;;;;;;;9.15;3.08;;;;;;;;;;8258165;28;20349;-71
2021/08/12 23:26:28;;;;;;;9.45;2.90;;;;;;;;;;8259500;28;20380;-71
2021/08/12 23:30:34;;;;;;;4.22;2.60;;;;;;;;;;8259851;28;20037;-71
2021/08/12 23:34:39;;;;;;;4.35;2.53;;;;;;;;;;8257563;28;20371;-71
2021/08/12 23:38:44;;;;;;;4.68;2.55;;;;;;;;;;8257736;28;20455;-71
2021/08/12 23:42:50;;;;;;;4.18;2.67;;;;;;;;;;8256683;28;20348;-71
2021/08/12 23:46:56;;;;;;;3.90;2.90;;;;;;;;;;8256548;28;20338;-71
2021/08/12 23:51:05;;;;;;;5.97;3.10;;;;;;;;;;8257578;28;20486;-71
2021/08/12 23:55:10;;;;;;;7.15;2.65;;;;;;;;;;8257941;28;20352;-71
2021/08/12 23:59:15;;;;;;;4.75;2.47;;;;;;;;;;8239311;28;20037;-72
